sensor_id;sensor_type;location;lat;lon;timestamp;P1;durP1;ratioP1;P2;durP2;ratioP2
24743;SDS011;12844;52.110;5.548;2023-03-01T00:00:26;4.35;;;3.20;;
24743;SDS011;12844;52.110;5.548;2023-03-01T00:02:52;3.33;;;2.90;;
24743;SDS011;12844;52.110;5.548;2023-03-01T00:05:18;3.60;;;3.10;;
24743;SDS011;12844;52.110;5.548;2023-03-01T00:07:43;3.40;;;2.95;;
24743;SDS011;12844;52.110;5.548;2023-03-01T00:10:09;3.70;;;3.03;;
24743;SDS011;12844;52.110;5.548;2023-03-01T00:12:35;3.97;;;3.22;;
24743;SDS011;12844;52.110;5.548;2023-03-01T00:15:01;5.43;;;3.45;;
24743;SDS011;12844;52.110;5.548;2023-03-01T00:17:29;6.03;;;3.60;;
24743;SDS011;12844;52.110;5.548;2023-03-01T00:19:54;4.07;;;2.75;;
24743;SDS011;12844;52.110;5.548;2023-03-01T00:22:20;4.13;;;3.08;;
24743;SDS011;12844;52.110;5.548;2023-03-01T00:24:45;3.92;;;3.00;;
24743;SDS011;12844;52.110;5.548;2023-03-01T00:27:11;4.35;;;3.00;;
24743;SDS011;12844;52.110;5.548;2023-03-01T00:29:36;3.78;;;3.08;;
24743;SDS011;12844;52.110;5.548;2023-03-01T00:32:02;3.60;;;2.78;;
24743;SDS011;12844;52.110;5.548;2023-03-01T00:34:27;4.70;;;3.00;;
24743;SDS011;12844;52.110;5.548;2023-03-01T00:36:53;4.35;;;3.20;;
24743;SDS011;12844;52.110;5.548;2023-03-01T00:39:18;4.30;;;3.38;;
24743;SDS011;12844;52.110;5.548;2023-03-01T00:41:44;3.40;;;3.10;;
24743;SDS011;12844;52.110;5.548;2023-03-01T00:44:09;3.55;;;3.17;;
24743;SDS011;12844;52.110;5.548;2023-03-01T00:46:35;3.40;;;3.00;;
24743;SDS011;12844;52.110;5.548;2023-03-01T00:49:01;3.75;;;2.80;;
24743;SDS011;12844;52.110;5.548;2023-03-01T00:51:27;3.90;;;3.40;;
24743;SDS011;12844;52.110;5.548;2023-03-01T00:53:54;3.67;;;3.22;;
24743;SDS011;12844;52.110;5.548;2023-03-01T00:56:22;4.82;;;3.38;;
24743;SDS011;12844;52.110;5.548;2023-03-01T00:58:47;3.33;;;2.97;;
24743;SDS011;12844;52.110;5.548;2023-03-01T01:01:18;3.42;;;2.88;;
24743;SDS011;12844;52.110;5.548;2023-03-01T01:03:54;4.32;;;3.42;;
24743;SDS011;12844;52.110;5.548;2023-03-01T01:06:25;3.30;;;3.00;;
24743;SDS011;12844;52.110;5.548;2023-03-01T01:08:53;3.05;;;2.75;;
24743;SDS011;12844;52.110;5.548;2023-03-01T01:11:20;4.30;;;2.95;;
24743;SDS011;12844;52.110;5.548;2023-03-01T01:13:48;3.35;;;3.00;;
24743;SDS011;12844;52.110;5.548;2023-03-01T01:16:14;4.50;;;3.22;;
24743;SDS011;12844;52.110;5.548;2023-03-01T01:18:41;3.63;;;3.08;;
24743;SDS011;12844;52.110;5.548;2023-03-01T01:31:28;5.18;;;3.53;;
24743;SDS011;12844;52.110;5.548;2023-03-01T01:33:54;3.95;;;2.97;;
24743;SDS011;12844;52.110;5.548;2023-03-01T01:36:21;4.15;;;3.22;;
24743;SDS011;12844;52.110;5.548;2023-03-01T01:38:46;3.75;;;3.20;;
24743;SDS011;12844;52.110;5.548;2023-03-01T01:41:12;4.82;;;3.20;;
24743;SDS011;12844;52.110;5.548;2023-03-01T01:46:28;3.58;;;3.10;;
24743;SDS011;12844;52.110;5.548;2023-03-01T01:49:00;10.82;;;3.10;;
24743;SDS011;12844;52.110;5.548;2023-03-01T01:54:07;5.47;;;2.83;;
24743;SDS011;12844;52.110;5.548;2023-03-01T01:56:37;5.43;;;3.50;;
24743;SDS011;12844;52.110;5.548;2023-03-01T01:59:05;5.28;;;3.33;;
24743;SDS011;12844;52.110;5.548;2023-03-01T02:01:31;4.13;;;3.10;;
24743;SDS011;12844;52.110;5.548;2023-03-01T02:03:57;4.22;;;3.40;;
24743;SDS011;12844;52.110;5.548;2023-03-01T02:06:31;6.00;;;3.20;;
24743;SDS011;12844;52.110;5.548;2023-03-01T02:09:13;5.90;;;3.00;;
24743;SDS011;12844;52.110;5.548;2023-03-01T02:11:40;3.58;;;3.10;;
24743;SDS011;12844;52.110;5.548;2023-03-01T02:14:06;4.63;;;3.45;;
24743;SDS011;12844;52.110;5.548;2023-03-01T02:16:32;5.05;;;3.47;;
24743;SDS011;12844;52.110;5.548;2023-03-01T02:18:58;3.58;;;3.20;;
24743;SDS011;12844;52.110;5.548;2023-03-01T02:21:38;5.57;;;3.80;;
24743;SDS011;12844;52.110;5.548;2023-03-01T02:24:50;8.30;;;3.75;;
24743;SDS011;12844;52.110;5.548;2023-03-01T02:27:05;4.22;;;3.35;;
24743;SDS011;12844;52.110;5.548;2023-03-01T02:29:31;5.38;;;3.72;;
24743;SDS011;12844;52.110;5.548;2023-03-01T02:31:57;5.10;;;3.45;;
24743;SDS011;12844;52.110;5.548;2023-03-01T02:34:26;4.00;;;3.60;;
24743;SDS011;12844;52.110;5.548;2023-03-01T02:36:59;4.97;;;3.55;;
24743;SDS011;12844;52.110;5.548;2023-03-01T02:39:33;4.30;;;3.55;;
24743;SDS011;12844;52.110;5.548;2023-03-01T02:42:07;5.07;;;3.83;;
24743;SDS011;12844;52.110;5.548;2023-03-01T02:44:39;4.32;;;3.60;;
24743;SDS011;12844;52.110;5.548;2023-03-01T02:47:05;5.25;;;3.58;;
24743;SDS011;12844;52.110;5.548;2023-03-01T02:49:32;4.55;;;3.75;;
24743;SDS011;12844;52.110;5.548;2023-03-01T02:52:01;4.68;;;3.55;;
24743;SDS011;12844;52.110;5.548;2023-03-01T02:54:35;4.32;;;3.80;;
24743;SDS011;12844;52.110;5.548;2023-03-01T02:57:07;4.68;;;3.67;;
24743;SDS011;12844;52.110;5.548;2023-03-01T02:59:34;4.00;;;3.60;;
24743;SDS011;12844;52.110;5.548;2023-03-01T03:02:04;4.32;;;3.63;;
24743;SDS011;12844;52.110;5.548;2023-03-01T03:04:30;4.13;;;3.58;;
24743;SDS011;12844;52.110;5.548;2023-03-01T03:06:57;4.10;;;3.53;;
24743;SDS011;12844;52.110;5.548;2023-03-01T03:09:22;3.80;;;3.15;;
24743;SDS011;12844;52.110;5.548;2023-03-01T03:11:48;5.07;;;3.80;;
24743;SDS011;12844;52.110;5.548;2023-03-01T03:14:14;5.13;;;3.80;;
24743;SDS011;12844;52.110;5.548;2023-03-01T03:16:42;3.80;;;3.42;;
24743;SDS011;12844;52.110;5.548;2023-03-01T03:19:09;3.90;;;3.50;;
24743;SDS011;12844;52.110;5.548;2023-03-01T03:21:35;4.10;;;3.53;;
24743;SDS011;12844;52.110;5.548;2023-03-01T03:24:01;4.43;;;3.83;;
24743;SDS011;12844;52.110;5.548;2023-03-01T03:26:28;4.40;;;3.65;;
24743;SDS011;12844;52.110;5.548;2023-03-01T03:28:53;5.18;;;3.88;;
24743;SDS011;12844;52.110;5.548;2023-03-01T03:31:19;4.72;;;3.72;;
24743;SDS011;12844;52.110;5.548;2023-03-01T03:33:45;4.05;;;3.60;;
24743;SDS011;12844;52.110;5.548;2023-03-01T03:36:15;4.47;;;3.60;;
24743;SDS011;12844;52.110;5.548;2023-03-01T03:38:42;3.75;;;3.25;;
24743;SDS011;12844;52.110;5.548;2023-03-01T03:41:09;4.45;;;3.75;;
24743;SDS011;12844;52.110;5.548;2023-03-01T03:43:36;4.10;;;3.50;;
24743;SDS011;12844;52.110;5.548;2023-03-01T03:46:03;5.85;;;3.70;;
24743;SDS011;12844;52.110;5.548;2023-03-01T03:48:42;4.03;;;3.63;;
24743;SDS011;12844;52.110;5.548;2023-03-01T03:51:16;4.60;;;3.80;;
24743;SDS011;12844;52.110;5.548;2023-03-01T03:53:42;4.20;;;3.50;;
24743;SDS011;12844;52.110;5.548;2023-03-01T03:56:09;4.90;;;3.70;;
24743;SDS011;12844;52.110;5.548;2023-03-01T03:58:35;4.82;;;3.70;;
24743;SDS011;12844;52.110;5.548;2023-03-01T04:01:01;5.53;;;3.63;;
24743;SDS011;12844;52.110;5.548;2023-03-01T04:03:27;4.40;;;3.78;;
24743;SDS011;12844;52.110;5.548;2023-03-01T04:05:54;4.13;;;3.60;;
24743;SDS011;12844;52.110;5.548;2023-03-01T04:08:25;3.90;;;3.45;;
24743;SDS011;12844;52.110;5.548;2023-03-01T04:10:52;3.65;;;3.28;;
24743;SDS011;12844;52.110;5.548;2023-03-01T04:13:24;4.30;;;3.90;;
24743;SDS011;12844;52.110;5.548;2023-03-01T04:15:50;4.38;;;3.65;;
24743;SDS011;12844;52.110;5.548;2023-03-01T04:18:17;4.13;;;3.70;;
24743;SDS011;12844;52.110;5.548;2023-03-01T04:20:44;4.30;;;3.80;;
24743;SDS011;12844;52.110;5.548;2023-03-01T04:28:23;4.55;;;3.90;;
24743;SDS011;12844;52.110;5.548;2023-03-01T04:30:50;4.47;;;3.80;;
24743;SDS011;12844;52.110;5.548;2023-03-01T04:33:19;4.10;;;3.60;;
24743;SDS011;12844;52.110;5.548;2023-03-01T04:35:45;4.53;;;3.70;;
24743;SDS011;12844;52.110;5.548;2023-03-01T04:38:14;4.32;;;3.90;;
24743;SDS011;12844;52.110;5.548;2023-03-01T04:40:40;4.22;;;3.83;;
24743;SDS011;12844;52.110;5.548;2023-03-01T04:43:08;4.60;;;3.75;;
24743;SDS011;12844;52.110;5.548;2023-03-01T04:45:35;3.65;;;3.35;;
24743;SDS011;12844;52.110;5.548;2023-03-01T04:48:02;4.10;;;3.70;;
24743;SDS011;12844;52.110;5.548;2023-03-01T04:50:28;4.07;;;3.67;;
24743;SDS011;12844;52.110;5.548;2023-03-01T04:52:54;4.10;;;3.70;;
24743;SDS011;12844;52.110;5.548;2023-03-01T04:55:23;4.40;;;4.00;;
24743;SDS011;12844;52.110;5.548;2023-03-01T04:57:50;4.15;;;3.60;;
24743;SDS011;12844;52.110;5.548;2023-03-01T05:00:16;4.05;;;3.65;;
24743;SDS011;12844;52.110;5.548;2023-03-01T05:02:52;4.20;;;3.80;;
24743;SDS011;12844;52.110;5.548;2023-03-01T05:05:23;4.55;;;4.07;;
24743;SDS011;12844;52.110;5.548;2023-03-01T05:07:55;4.38;;;3.97;;
24743;SDS011;12844;52.110;5.548;2023-03-01T05:10:22;4.03;;;3.63;;
24743;SDS011;12844;52.110;5.548;2023-03-01T05:12:48;3.95;;;3.60;;
24743;SDS011;12844;52.110;5.548;2023-03-01T05:15:14;3.85;;;3.22;;
24743;SDS011;12844;52.110;5.548;2023-03-01T05:17:40;4.70;;;4.20;;
24743;SDS011;12844;52.110;5.548;2023-03-01T05:20:05;4.00;;;3.60;;
24743;SDS011;12844;52.110;5.548;2023-03-01T05:22:33;4.18;;;3.65;;
24743;SDS011;12844;52.110;5.548;2023-03-01T05:24:59;3.88;;;3.42;;
24743;SDS011;12844;52.110;5.548;2023-03-01T05:27:25;4.05;;;3.40;;
24743;SDS011;12844;52.110;5.548;2023-03-01T05:29:50;3.35;;;3.05;;
24743;SDS011;12844;52.110;5.548;2023-03-01T05:32:16;4.20;;;3.40;;
24743;SDS011;12844;52.110;5.548;2023-03-01T05:34:41;4.85;;;3.75;;
24743;SDS011;12844;52.110;5.548;2023-03-01T05:37:07;4.03;;;3.63;;
24743;SDS011;12844;52.110;5.548;2023-03-01T05:39:33;4.00;;;3.60;;
24743;SDS011;12844;52.110;5.548;2023-03-01T05:42:00;4.13;;;3.72;;
24743;SDS011;12844;52.110;5.548;2023-03-01T05:44:26;3.72;;;3.35;;
24743;SDS011;12844;52.110;5.548;2023-03-01T05:46:53;4.18;;;3.78;;
24743;SDS011;12844;52.110;5.548;2023-03-01T05:49:20;3.78;;;3.40;;
24743;SDS011;12844;52.110;5.548;2023-03-01T05:51:49;4.22;;;3.67;;
24743;SDS011;12844;52.110;5.548;2023-03-01T05:54:15;3.83;;;3.50;;
24743;SDS011;12844;52.110;5.548;2023-03-01T05:56:42;4.07;;;3.67;;
24743;SDS011;12844;52.110;5.548;2023-03-01T05:59:07;4.32;;;3.80;;
24743;SDS011;12844;52.110;5.548;2023-03-01T06:01:33;4.22;;;3.83;;
24743;SDS011;12844;52.110;5.548;2023-03-01T06:04:00;4.20;;;3.80;;
24743;SDS011;12844;52.110;5.548;2023-03-01T06:06:25;4.22;;;3.83;;
24743;SDS011;12844;52.110;5.548;2023-03-01T06:08:51;3.97;;;3.58;;
24743;SDS011;12844;52.110;5.548;2023-03-01T06:11:18;3.90;;;3.50;;
24743;SDS011;12844;52.110;5.548;2023-03-01T06:13:44;4.47;;;3.60;;
24743;SDS011;12844;52.110;5.548;2023-03-01T06:16:11;3.95;;;3.55;;
24743;SDS011;12844;52.110;5.548;2023-03-01T06:18:37;4.50;;;3.88;;
24743;SDS011;12844;52.110;5.548;2023-03-01T06:21:04;4.10;;;3.70;;
24743;SDS011;12844;52.110;5.548;2023-03-01T06:23:30;4.80;;;3.78;;
24743;SDS011;12844;52.110;5.548;2023-03-01T06:25:56;4.75;;;4.20;;
24743;SDS011;12844;52.110;5.548;2023-03-01T06:28:21;4.40;;;4.00;;
24743;SDS011;12844;52.110;5.548;2023-03-01T06:30:47;5.38;;;3.95;;
24743;SDS011;12844;52.110;5.548;2023-03-01T06:33:13;4.10;;;3.50;;
24743;SDS011;12844;52.110;5.548;2023-03-01T06:35:39;4.40;;;3.92;;
24743;SDS011;12844;52.110;5.548;2023-03-01T06:38:04;4.25;;;3.85;;
24743;SDS011;12844;52.110;5.548;2023-03-01T06:40:30;4.18;;;3.80;;
24743;SDS011;12844;52.110;5.548;2023-03-01T06:42:57;4.60;;;3.88;;
24743;SDS011;12844;52.110;5.548;2023-03-01T06:45:23;4.10;;;3.70;;
24743;SDS011;12844;52.110;5.548;2023-03-01T06:47:49;4.50;;;3.58;;
24743;SDS011;12844;52.110;5.548;2023-03-01T06:50:15;4.35;;;3.83;;
24743;SDS011;12844;52.110;5.548;2023-03-01T06:52:42;4.18;;;3.75;;
24743;SDS011;12844;52.110;5.548;2023-03-01T06:55:09;4.82;;;4.10;;
24743;SDS011;12844;52.110;5.548;2023-03-01T06:57:35;4.22;;;3.58;;
24743;SDS011;12844;52.110;5.548;2023-03-01T07:00:01;4.30;;;3.90;;
24743;SDS011;12844;52.110;5.548;2023-03-01T07:02:28;4.72;;;4.00;;
24743;SDS011;12844;52.110;5.548;2023-03-01T07:04:54;4.70;;;4.13;;
24743;SDS011;12844;52.110;5.548;2023-03-01T07:07:19;4.57;;;3.78;;
24743;SDS011;12844;52.110;5.548;2023-03-01T07:09:45;4.10;;;3.67;;
24743;SDS011;12844;52.110;5.548;2023-03-01T07:12:11;4.93;;;3.80;;
24743;SDS011;12844;52.110;5.548;2023-03-01T07:14:37;3.75;;;3.35;;
24743;SDS011;12844;52.110;5.548;2023-03-01T07:17:02;4.78;;;3.58;;
24743;SDS011;12844;52.110;5.548;2023-03-01T07:19:28;4.22;;;3.38;;
24743;SDS011;12844;52.110;5.548;2023-03-01T07:21:53;3.97;;;3.53;;
24743;SDS011;12844;52.110;5.548;2023-03-01T07:24:20;3.47;;;3.08;;
24743;SDS011;12844;52.110;5.548;2023-03-01T07:26:50;4.57;;;3.22;;
24743;SDS011;12844;52.110;5.548;2023-03-01T07:29:16;3.65;;;3.05;;
24743;SDS011;12844;52.110;5.548;2023-03-01T07:31:42;3.47;;;2.90;;
24743;SDS011;12844;52.110;5.548;2023-03-01T07:34:08;3.75;;;3.35;;
24743;SDS011;12844;52.110;5.548;2023-03-01T07:36:33;5.70;;;3.42;;
24743;SDS011;12844;52.110;5.548;2023-03-01T07:38:59;5.45;;;3.28;;
24743;SDS011;12844;52.110;5.548;2023-03-01T07:41:27;3.50;;;3.20;;
24743;SDS011;12844;52.110;5.548;2023-03-01T07:43:52;3.50;;;3.15;;
24743;SDS011;12844;52.110;5.548;2023-03-01T07:46:18;3.50;;;3.20;;
24743;SDS011;12844;52.110;5.548;2023-03-01T07:48:44;4.85;;;3.00;;
24743;SDS011;12844;52.110;5.548;2023-03-01T07:51:09;6.38;;;3.38;;
24743;SDS011;12844;52.110;5.548;2023-03-01T07:53:35;4.30;;;3.55;;
24743;SDS011;12844;52.110;5.548;2023-03-01T07:56:08;5.10;;;3.38;;
24743;SDS011;12844;52.110;5.548;2023-03-01T07:58:36;4.28;;;3.45;;
24743;SDS011;12844;52.110;5.548;2023-03-01T08:01:03;4.53;;;3.35;;
24743;SDS011;12844;52.110;5.548;2023-03-01T08:03:30;3.92;;;3.20;;
24743;SDS011;12844;52.110;5.548;2023-03-01T08:05:59;6.65;;;2.88;;
24743;SDS011;12844;52.110;5.548;2023-03-01T08:08:25;6.25;;;3.17;;
24743;SDS011;12844;52.110;5.548;2023-03-01T08:10:51;6.28;;;3.78;;
24743;SDS011;12844;52.110;5.548;2023-03-01T08:13:17;3.85;;;2.97;;
24743;SDS011;12844;52.110;5.548;2023-03-01T08:15:47;6.95;;;3.17;;
24743;SDS011;12844;52.110;5.548;2023-03-01T08:18:13;5.03;;;2.83;;
24743;SDS011;12844;52.110;5.548;2023-03-01T08:20:39;4.75;;;2.97;;
24743;SDS011;12844;52.110;5.548;2023-03-01T08:23:05;6.68;;;3.08;;
24743;SDS011;12844;52.110;5.548;2023-03-01T08:25:30;5.13;;;2.95;;
24743;SDS011;12844;52.110;5.548;2023-03-01T08:27:56;4.38;;;3.00;;
24743;SDS011;12844;52.110;5.548;2023-03-01T08:30:21;3.80;;;3.00;;
24743;SDS011;12844;52.110;5.548;2023-03-01T08:32:48;4.32;;;2.80;;
24743;SDS011;12844;52.110;5.548;2023-03-01T08:35:14;4.57;;;3.00;;
24743;SDS011;12844;52.110;5.548;2023-03-01T08:37:39;7.38;;;3.08;;
24743;SDS011;12844;52.110;5.548;2023-03-01T08:40:05;6.88;;;3.33;;
24743;SDS011;12844;52.110;5.548;2023-03-01T08:42:32;9.48;;;3.38;;
24743;SDS011;12844;52.110;5.548;2023-03-01T08:44:58;8.02;;;3.40;;
24743;SDS011;12844;52.110;5.548;2023-03-01T08:47:23;5.78;;;3.15;;
24743;SDS011;12844;52.110;5.548;2023-03-01T08:49:49;14.20;;;3.70;;
24743;SDS011;12844;52.110;5.548;2023-03-01T08:52:15;6.88;;;3.42;;
24743;SDS011;12844;52.110;5.548;2023-03-01T08:54:41;6.63;;;3.75;;
24743;SDS011;12844;52.110;5.548;2023-03-01T08:57:06;5.60;;;3.55;;
24743;SDS011;12844;52.110;5.548;2023-03-01T08:59:33;6.63;;;4.18;;
24743;SDS011;12844;52.110;5.548;2023-03-01T09:02:02;8.70;;;3.88;;
24743;SDS011;12844;52.110;5.548;2023-03-01T09:04:28;7.72;;;3.70;;
24743;SDS011;12844;52.110;5.548;2023-03-01T09:06:54;7.80;;;3.75;;
24743;SDS011;12844;52.110;5.548;2023-03-01T09:09:20;8.18;;;4.03;;
24743;SDS011;12844;52.110;5.548;2023-03-01T09:11:45;6.32;;;3.88;;
24743;SDS011;12844;52.110;5.548;2023-03-01T09:14:12;7.03;;;3.70;;
24743;SDS011;12844;52.110;5.548;2023-03-01T09:16:38;8.13;;;3.63;;
24743;SDS011;12844;52.110;5.548;2023-03-01T09:19:04;6.20;;;3.63;;
24743;SDS011;12844;52.110;5.548;2023-03-01T09:21:30;5.82;;;3.72;;
24743;SDS011;12844;52.110;5.548;2023-03-01T09:23:56;7.47;;;4.05;;
24743;SDS011;12844;52.110;5.548;2023-03-01T09:26:23;5.80;;;3.83;;
24743;SDS011;12844;52.110;5.548;2023-03-01T09:28:50;7.68;;;3.92;;
24743;SDS011;12844;52.110;5.548;2023-03-01T09:31:17;8.30;;;4.00;;
24743;SDS011;12844;52.110;5.548;2023-03-01T09:33:45;6.47;;;3.95;;
24743;SDS011;12844;52.110;5.548;2023-03-01T09:36:15;7.15;;;3.60;;
24743;SDS011;12844;52.110;5.548;2023-03-01T09:38:43;6.93;;;3.97;;
24743;SDS011;12844;52.110;5.548;2023-03-01T09:41:19;6.00;;;3.60;;
24743;SDS011;12844;52.110;5.548;2023-03-01T09:43:50;7.97;;;3.63;;
24743;SDS011;12844;52.110;5.548;2023-03-01T09:46:22;7.60;;;3.53;;
24743;SDS011;12844;52.110;5.548;2023-03-01T09:49:03;6.53;;;3.67;;
24743;SDS011;12844;52.110;5.548;2023-03-01T09:51:37;5.93;;;3.78;;
24743;SDS011;12844;52.110;5.548;2023-03-01T09:54:02;6.00;;;3.78;;
24743;SDS011;12844;52.110;5.548;2023-03-01T09:56:32;7.18;;;3.65;;
24743;SDS011;12844;52.110;5.548;2023-03-01T10:07:13;5.25;;;3.22;;
24743;SDS011;12844;52.110;5.548;2023-03-01T10:10:00;6.00;;;3.65;;
24743;SDS011;12844;52.110;5.548;2023-03-01T10:12:35;6.00;;;3.83;;
24743;SDS011;12844;52.110;5.548;2023-03-01T10:15:06;5.78;;;3.53;;
24743;SDS011;12844;52.110;5.548;2023-03-01T10:17:41;6.75;;;3.58;;
24743;SDS011;12844;52.110;5.548;2023-03-01T10:20:22;5.32;;;3.30;;
24743;SDS011;12844;52.110;5.548;2023-03-01T10:22:49;6.30;;;3.47;;
24743;SDS011;12844;52.110;5.548;2023-03-01T10:25:20;5.75;;;3.47;;
24743;SDS011;12844;52.110;5.548;2023-03-01T10:27:58;4.90;;;3.10;;
24743;SDS011;12844;52.110;5.548;2023-03-01T10:33:08;5.53;;;3.33;;
24743;SDS011;12844;52.110;5.548;2023-03-01T10:35:41;7.63;;;3.38;;
24743;SDS011;12844;52.110;5.548;2023-03-01T10:38:08;5.28;;;2.97;;
24743;SDS011;12844;52.110;5.548;2023-03-01T10:40:35;4.70;;;2.72;;
24743;SDS011;12844;52.110;5.548;2023-03-01T10:43:02;5.97;;;3.30;;
24743;SDS011;12844;52.110;5.548;2023-03-01T10:50:29;6.37;;;2.83;;
24743;SDS011;12844;52.110;5.548;2023-03-01T10:53:00;4.57;;;2.55;;
24743;SDS011;12844;52.110;5.548;2023-03-01T10:55:34;8.40;;;2.50;;
24743;SDS011;12844;52.110;5.548;2023-03-01T11:00:46;5.40;;;2.63;;
24743;SDS011;12844;52.110;5.548;2023-03-01T11:03:19;4.40;;;2.42;;
24743;SDS011;12844;52.110;5.548;2023-03-01T11:05:51;5.18;;;2.30;;
24743;SDS011;12844;52.110;5.548;2023-03-01T11:08:31;5.10;;;2.53;;
24743;SDS011;12844;52.110;5.548;2023-03-01T11:16:28;3.92;;;2.45;;
24743;SDS011;12844;52.110;5.548;2023-03-01T11:18:58;7.55;;;2.70;;
24743;SDS011;12844;52.110;5.548;2023-03-01T11:21:29;4.30;;;2.00;;
24743;SDS011;12844;52.110;5.548;2023-03-01T11:23:58;4.63;;;2.30;;
24743;SDS011;12844;52.110;5.548;2023-03-01T11:26:26;9.02;;;2.10;;
24743;SDS011;12844;52.110;5.548;2023-03-01T11:28:54;5.70;;;2.30;;
24743;SDS011;12844;52.110;5.548;2023-03-01T11:31:23;4.85;;;2.10;;
24743;SDS011;12844;52.110;5.548;2023-03-01T11:33:55;5.18;;;2.20;;
24743;SDS011;12844;52.110;5.548;2023-03-01T11:36:29;3.30;;;1.85;;
24743;SDS011;12844;52.110;5.548;2023-03-01T11:39:04;4.18;;;1.98;;
24743;SDS011;12844;52.110;5.548;2023-03-01T11:41:41;4.60;;;2.05;;
24743;SDS011;12844;52.110;5.548;2023-03-01T11:44:12;5.53;;;1.92;;
24743;SDS011;12844;52.110;5.548;2023-03-01T11:46:51;4.78;;;1.88;;
24743;SDS011;12844;52.110;5.548;2023-03-01T11:53:07;3.70;;;1.70;;
24743;SDS011;12844;52.110;5.548;2023-03-01T11:55:20;4.88;;;2.05;;
24743;SDS011;12844;52.110;5.548;2023-03-01T12:06:43;3.67;;;1.65;;
24743;SDS011;12844;52.110;5.548;2023-03-01T12:09:17;2.13;;;1.70;;
24743;SDS011;12844;52.110;5.548;2023-03-01T12:12:00;2.65;;;1.50;;
24743;SDS011;12844;52.110;5.548;2023-03-01T12:17:31;2.10;;;1.48;;
24743;SDS011;12844;52.110;5.548;2023-03-01T12:20:17;6.85;;;2.47;;
24743;SDS011;12844;52.110;5.548;2023-03-01T12:34:01;3.17;;;1.70;;
24743;SDS011;12844;52.110;5.548;2023-03-01T12:44:51;2.55;;;1.67;;
24743;SDS011;12844;52.110;5.548;2023-03-01T12:50:24;3.78;;;1.90;;
24743;SDS011;12844;52.110;5.548;2023-03-01T12:52:56;3.30;;;1.75;;
24743;SDS011;12844;52.110;5.548;2023-03-01T12:57:57;3.77;;;1.90;;
24743;SDS011;12844;52.110;5.548;2023-03-01T13:06:07;2.40;;;1.65;;
24743;SDS011;12844;52.110;5.548;2023-03-01T13:08:40;3.35;;;1.85;;
24743;SDS011;12844;52.110;5.548;2023-03-01T13:11:20;4.35;;;1.83;;
24743;SDS011;12844;52.110;5.548;2023-03-01T13:13:47;2.47;;;1.50;;
24743;SDS011;12844;52.110;5.548;2023-03-01T13:16:47;2.92;;;1.40;;
24743;SDS011;12844;52.110;5.548;2023-03-01T13:21:38;3.58;;;1.55;;
24743;SDS011;12844;52.110;5.548;2023-03-01T13:24:04;2.50;;;1.40;;
24743;SDS011;12844;52.110;5.548;2023-03-01T13:29:48;2.13;;;1.38;;
24743;SDS011;12844;52.110;5.548;2023-03-01T13:32:25;2.63;;;1.30;;
24743;SDS011;12844;52.110;5.548;2023-03-01T13:34:55;1.52;;;1.20;;
24743;SDS011;12844;52.110;5.548;2023-03-01T13:37:47;2.17;;;1.27;;
24743;SDS011;12844;52.110;5.548;2023-03-01T13:42:50;3.30;;;1.60;;
24743;SDS011;12844;52.110;5.548;2023-03-01T13:45:18;2.42;;;1.45;;
24743;SDS011;12844;52.110;5.548;2023-03-01T13:47:44;2.53;;;1.50;;
24743;SDS011;12844;52.110;5.548;2023-03-01T13:50:18;2.15;;;1.50;;
24743;SDS011;12844;52.110;5.548;2023-03-01T13:55:18;3.90;;;1.70;;
24743;SDS011;12844;52.110;5.548;2023-03-01T13:57:55;3.17;;;1.50;;
24743;SDS011;12844;52.110;5.548;2023-03-01T14:00:27;1.80;;;1.35;;
24743;SDS011;12844;52.110;5.548;2023-03-01T14:03:03;2.10;;;1.63;;
24743;SDS011;12844;52.110;5.548;2023-03-01T14:05:33;2.55;;;1.40;;
24743;SDS011;12844;52.110;5.548;2023-03-01T14:08:00;2.08;;;1.65;;
24743;SDS011;12844;52.110;5.548;2023-03-01T14:10:30;3.63;;;1.60;;
24743;SDS011;12844;52.110;5.548;2023-03-01T14:13:20;2.70;;;1.40;;
24743;SDS011;12844;52.110;5.548;2023-03-01T14:16:04;2.67;;;1.33;;
24743;SDS011;12844;52.110;5.548;2023-03-01T14:18:51;2.38;;;1.40;;
24743;SDS011;12844;52.110;5.548;2023-03-01T14:21:21;2.67;;;1.58;;
24743;SDS011;12844;52.110;5.548;2023-03-01T14:23:47;3.78;;;1.52;;
24743;SDS011;12844;52.110;5.548;2023-03-01T14:26:13;3.10;;;1.48;;
24743;SDS011;12844;52.110;5.548;2023-03-01T14:28:46;2.78;;;1.60;;
24743;SDS011;12844;52.110;5.548;2023-03-01T14:31:34;2.83;;;1.52;;
24743;SDS011;12844;52.110;5.548;2023-03-01T14:34:02;3.15;;;1.40;;
24743;SDS011;12844;52.110;5.548;2023-03-01T14:36:29;2.08;;;1.50;;
24743;SDS011;12844;52.110;5.548;2023-03-01T14:38:56;3.10;;;1.70;;
24743;SDS011;12844;52.110;5.548;2023-03-01T14:41:29;2.90;;;1.40;;
24743;SDS011;12844;52.110;5.548;2023-03-01T14:44:03;1.75;;;1.20;;
24743;SDS011;12844;52.110;5.548;2023-03-01T14:46:32;2.67;;;1.38;;
24743;SDS011;12844;52.110;5.548;2023-03-01T14:52:45;1.95;;;1.33;;
24743;SDS011;12844;52.110;5.548;2023-03-01T14:54:59;3.67;;;1.77;;
24743;SDS011;12844;52.110;5.548;2023-03-01T14:57:27;2.08;;;1.40;;
24743;SDS011;12844;52.110;5.548;2023-03-01T14:59:57;3.13;;;1.35;;
24743;SDS011;12844;52.110;5.548;2023-03-01T15:02:26;2.75;;;1.40;;
24743;SDS011;12844;52.110;5.548;2023-03-01T15:04:57;2.35;;;1.42;;
24743;SDS011;12844;52.110;5.548;2023-03-01T15:07:26;1.73;;;1.40;;
24743;SDS011;12844;52.110;5.548;2023-03-01T15:09:55;2.75;;;1.40;;
24743;SDS011;12844;52.110;5.548;2023-03-01T15:14:52;2.67;;;1.50;;
24743;SDS011;12844;52.110;5.548;2023-03-01T15:17:30;2.30;;;1.70;;
24743;SDS011;12844;52.110;5.548;2023-03-01T15:20:01;2.40;;;1.60;;
24743;SDS011;12844;52.110;5.548;2023-03-01T15:22:29;2.28;;;1.45;;
24743;SDS011;12844;52.110;5.548;2023-03-01T15:24:54;2.08;;;1.40;;
24743;SDS011;12844;52.110;5.548;2023-03-01T15:27:21;2.97;;;1.70;;
24743;SDS011;12844;52.110;5.548;2023-03-01T15:29:50;2.60;;;1.73;;
24743;SDS011;12844;52.110;5.548;2023-03-01T15:32:31;2.40;;;1.60;;
24743;SDS011;12844;52.110;5.548;2023-03-01T15:35:32;2.65;;;1.50;;
24743;SDS011;12844;52.110;5.548;2023-03-01T15:38:04;2.92;;;1.58;;
24743;SDS011;12844;52.110;5.548;2023-03-01T15:40:50;2.60;;;1.50;;
24743;SDS011;12844;52.110;5.548;2023-03-01T15:46:11;2.80;;;1.42;;
24743;SDS011;12844;52.110;5.548;2023-03-01T15:48:44;3.30;;;1.50;;
24743;SDS011;12844;52.110;5.548;2023-03-01T15:51:12;3.10;;;1.60;;
24743;SDS011;12844;52.110;5.548;2023-03-01T15:53:39;2.20;;;1.25;;
24743;SDS011;12844;52.110;5.548;2023-03-01T15:56:05;2.45;;;1.33;;
24743;SDS011;12844;52.110;5.548;2023-03-01T15:58:32;4.15;;;1.25;;
24743;SDS011;12844;52.110;5.548;2023-03-01T16:00:58;8.32;;;1.67;;
24743;SDS011;12844;52.110;5.548;2023-03-01T16:03:24;3.60;;;1.35;;
24743;SDS011;12844;52.110;5.548;2023-03-01T16:05:50;3.10;;;1.38;;
24743;SDS011;12844;52.110;5.548;2023-03-01T16:08:16;4.47;;;1.50;;
24743;SDS011;12844;52.110;5.548;2023-03-01T16:10:42;4.47;;;1.45;;
24743;SDS011;12844;52.110;5.548;2023-03-01T16:13:08;5.18;;;1.70;;
24743;SDS011;12844;52.110;5.548;2023-03-01T16:15:34;2.88;;;1.48;;
24743;SDS011;12844;52.110;5.548;2023-03-01T16:18:00;4.22;;;1.48;;
24743;SDS011;12844;52.110;5.548;2023-03-01T16:20:26;2.97;;;1.40;;
24743;SDS011;12844;52.110;5.548;2023-03-01T16:22:53;4.35;;;1.60;;
24743;SDS011;12844;52.110;5.548;2023-03-01T16:25:19;3.85;;;1.45;;
24743;SDS011;12844;52.110;5.548;2023-03-01T16:27:47;3.40;;;1.50;;
24743;SDS011;12844;52.110;5.548;2023-03-01T16:30:15;4.40;;;1.40;;
24743;SDS011;12844;52.110;5.548;2023-03-01T16:32:44;2.30;;;1.30;;
24743;SDS011;12844;52.110;5.548;2023-03-01T16:35:11;2.08;;;1.40;;
24743;SDS011;12844;52.110;5.548;2023-03-01T16:37:38;3.88;;;1.65;;
24743;SDS011;12844;52.110;5.548;2023-03-01T16:40:05;3.50;;;1.23;;
24743;SDS011;12844;52.110;5.548;2023-03-01T16:45:02;2.03;;;1.45;;
24743;SDS011;12844;52.110;5.548;2023-03-01T16:47:28;2.10;;;1.65;;
24743;SDS011;12844;52.110;5.548;2023-03-01T16:49:54;3.42;;;1.13;;